createdAt,value
2023-04-20T00:01:15.652Z,4.30
2023-04-20T00:03:42.726Z,4.00
2023-04-20T00:06:09.679Z,4.35
2023-04-20T00:08:36.605Z,4.78
2023-04-20T00:11:03.837Z,5.38
2023-04-20T00:13:30.978Z,5.22
2023-04-20T00:15:57.920Z,4.97
2023-04-20T00:18:24.828Z,5.65
2023-04-20T00:20:51.752Z,5.20
2023-04-20T00:23:18.722Z,5.68
2023-04-20T00:25:45.648Z,6.00
2023-04-20T00:28:12.562Z,5.95
2023-04-20T00:30:41.143Z,6.25
2023-04-20T00:33:08.305Z,6.50
2023-04-20T00:35:35.449Z,6.85
2023-04-20T00:38:02.390Z,7.18
2023-04-20T00:40:29.948Z,7.03
2023-04-20T00:42:57.220Z,7.70
2023-04-20T00:45:24.301Z,7.20
2023-04-20T00:47:51.753Z,7.25
2023-04-20T00:50:18.919Z,8.25
2023-04-20T00:52:46.836Z,7.97
2023-04-20T00:55:13.956Z,8.57
2023-04-20T00:57:41.622Z,8.25
2023-04-20T01:00:09.662Z,8.40
2023-04-20T01:02:37.966Z,8.15
2023-04-20T01:05:08.398Z,8.80
2023-04-20T01:07:35.387Z,8.70
2023-04-20T01:10:02.633Z,8.65
2023-04-20T01:12:30.628Z,8.15
2023-04-20T01:14:57.647Z,8.48
2023-04-20T01:17:24.641Z,7.32
2023-04-20T01:19:51.691Z,7.90
2023-04-20T01:22:21.974Z,7.15
2023-04-20T01:24:49.001Z,6.90
2023-04-20T01:27:17.155Z,6.53
2023-04-20T01:29:44.725Z,5.57
2023-04-20T01:32:12.170Z,4.22
2023-04-20T01:34:40.886Z,5.25
2023-04-20T01:37:09.023Z,4.93
2023-04-20T01:39:37.759Z,4.88
2023-04-20T01:42:05.780Z,5.05
2023-04-20T01:44:32.748Z,5.35
2023-04-20T01:46:59.972Z,5.32
2023-04-20T01:49:27.120Z,5.80
2023-04-20T01:51:54.258Z,6.28
2023-04-20T01:54:21.923Z,6.32
2023-04-20T01:56:48.914Z,4.80
2023-04-20T01:59:16.224Z,6.40
2023-04-20T02:01:43.404Z,5.15
2023-04-20T02:04:10.669Z,6.50
2023-04-20T02:06:40.893Z,6.95
2023-04-20T02:09:10.169Z,6.32
2023-04-20T02:11:37.114Z,6.95
2023-04-20T02:14:06.344Z,6.22
2023-04-20T02:16:35.511Z,6.82
2023-04-20T02:19:03.520Z,3.97
2023-04-20T02:21:31.459Z,6.18
2023-04-20T02:23:58.393Z,6.80
2023-04-20T02:26:27.419Z,6.88
2023-04-20T02:28:54.453Z,7.03
2023-04-20T02:31:21.452Z,7.38
2023-04-20T02:33:49.990Z,8.15
2023-04-20T02:36:16.995Z,8.18
2023-04-20T02:38:44.095Z,8.70
2023-04-20T02:41:11.009Z,9.32
2023-04-20T02:43:38.040Z,10.15
2023-04-20T02:46:05.390Z,10.93
2023-04-20T02:48:32.445Z,11.50
2023-04-20T02:51:00.046Z,11.00
2023-04-20T02:53:32.005Z,10.30
2023-04-20T02:56:12.040Z,9.90
2023-04-20T02:58:43.822Z,7.60
2023-04-20T03:01:37.305Z,9.50
2023-04-20T03:04:25.954Z,10.02
2023-04-20T03:07:00.422Z,9.60
2023-04-20T03:09:30.051Z,9.25
2023-04-20T03:12:13.329Z,10.77
2023-04-20T03:15:07.304Z,10.35
2023-04-20T03:18:00.298Z,10.13
2023-04-20T03:20:27.671Z,10.13
2023-04-20T03:22:54.681Z,7.68
2023-04-20T03:25:24.584Z,10.60
2023-04-20T03:28:06.181Z,11.23
2023-04-20T03:30:33.571Z,10.25
2023-04-20T03:33:05.774Z,9.85
2023-04-20T03:35:32.816Z,10.50
2023-04-20T03:38:00.063Z,8.25
2023-04-20T03:40:27.223Z,10.90
2023-04-20T03:42:54.221Z,11.38
2023-04-20T03:45:21.215Z,10.50
2023-04-20T03:47:49.557Z,11.20
2023-04-20T03:50:16.566Z,10.77
2023-04-20T03:52:43.473Z,10.57
2023-04-20T03:55:11.727Z,10.48
2023-04-20T03:57:45.681Z,10.40
2023-04-20T04:00:14.180Z,9.75
2023-04-20T04:02:47.242Z,7.05
2023-04-20T04:05:19.700Z,9.27
2023-04-20T04:07:49.532Z,9.38
2023-04-20T04:10:18.882Z,9.40
2023-04-20T04:12:46.295Z,9.38
2023-04-20T04:15:13.595Z,9.13
2023-04-20T04:17:49.081Z,8.98
2023-04-20T04:20:16.223Z,9.45
2023-04-20T04:22:46.659Z,10.95
2023-04-20T04:25:42.277Z,9.82
2023-04-20T04:28:11.816Z,9.52
2023-04-20T04:30:47.715Z,7.05
2023-04-20T04:33:15.052Z,9.55
2023-04-20T04:35:45.608Z,6.55
2023-04-20T04:38:14.085Z,9.95
2023-04-20T04:40:45.904Z,8.68
2023-04-20T04:43:13.412Z,7.70
2023-04-20T04:45:49.885Z,6.68
2023-04-20T04:48:19.014Z,7.88
2023-04-20T04:50:46.716Z,10.50
2023-04-20T04:53:13.729Z,8.45
2023-04-20T04:55:40.657Z,10.20
2023-04-20T04:58:07.556Z,7.90
2023-04-20T05:00:34.558Z,8.10
2023-04-20T05:03:01.647Z,11.77
2023-04-20T05:05:28.810Z,11.73
2023-04-20T05:07:55.872Z,8.57
2023-04-20T05:10:22.896Z,8.75
2023-04-20T05:12:49.867Z,12.25
2023-04-20T05:15:17.956Z,13.95
2023-04-20T05:17:45.277Z,13.82
2023-04-20T05:20:12.432Z,13.52
2023-04-20T05:22:39.419Z,13.63
2023-04-20T05:25:06.888Z,13.60
2023-04-20T05:27:34.246Z,13.20
2023-04-20T05:30:13.133Z,9.25
2023-04-20T05:32:44.011Z,13.68
2023-04-20T05:35:11.053Z,13.35
2023-04-20T05:37:37.994Z,13.52
2023-04-20T05:40:05.557Z,9.75
2023-04-20T05:42:32.549Z,13.27
2023-04-20T05:44:59.510Z,14.13
2023-04-20T05:47:27.547Z,13.85
2023-04-20T05:49:54.586Z,14.80
2023-04-20T05:52:21.573Z,14.05
2023-04-20T05:54:49.766Z,8.85
2023-04-20T05:57:16.772Z,9.35
2023-04-20T05:59:44.170Z,13.40
2023-04-20T06:02:11.216Z,13.98
2023-04-20T06:04:38.359Z,14.60
2023-04-20T06:07:05.483Z,13.90
2023-04-20T06:09:32.455Z,14.55
2023-04-20T06:12:00.747Z,14.25
2023-04-20T06:14:27.758Z,12.98
2023-04-20T06:16:54.712Z,10.13
2023-04-20T06:19:21.704Z,14.68
2023-04-20T06:21:48.692Z,14.38
2023-04-20T06:24:15.743Z,14.32
2023-04-20T06:26:42.709Z,13.88
2023-04-20T06:29:09.618Z,12.95
2023-04-20T06:31:36.649Z,13.55
2023-04-20T06:34:03.573Z,14.15
2023-04-20T06:36:31.214Z,15.57
2023-04-20T06:38:58.163Z,10.20
2023-04-20T06:41:25.268Z,13.95
2023-04-20T06:43:52.180Z,13.88
2023-04-20T06:46:19.206Z,14.27
2023-04-20T06:48:46.243Z,15.40
2023-04-20T06:51:14.217Z,17.40
2023-04-20T06:53:41.159Z,16.52
2023-04-20T06:56:08.352Z,13.65
2023-04-20T06:58:35.406Z,14.75
2023-04-20T07:01:02.556Z,14.77
2023-04-20T07:03:29.599Z,14.40
2023-04-20T07:05:56.597Z,13.35
2023-04-20T07:08:23.564Z,14.27
2023-04-20T07:10:50.601Z,13.40
2023-04-20T07:13:17.562Z,13.52
2023-04-20T07:15:45.892Z,13.55
2023-04-20T07:18:12.923Z,8.75
2023-04-20T07:20:39.999Z,12.07
2023-04-20T07:23:06.948Z,11.02
2023-04-20T07:25:33.942Z,8.25
2023-04-20T07:28:00.960Z,11.63
2023-04-20T07:30:28.010Z,15.52
2023-04-20T07:32:55.000Z,15.77
2023-04-20T07:35:22.243Z,29.38
2023-04-20T07:37:49.165Z,14.95
2023-04-20T07:40:17.107Z,8.18
2023-04-20T07:42:44.080Z,11.38
2023-04-20T07:45:12.404Z,11.77
2023-04-20T07:47:39.398Z,12.20
2023-04-20T07:50:07.949Z,11.23
2023-04-20T07:52:35.793Z,11.38
2023-04-20T07:55:03.112Z,11.98
2023-04-20T07:57:31.632Z,13.20
2023-04-20T07:59:58.730Z,12.25
2023-04-20T08:02:25.916Z,11.32
2023-04-20T08:04:53.206Z,8.50
2023-04-20T08:07:20.812Z,12.93
2023-04-20T08:09:47.763Z,8.63
2023-04-20T08:12:14.784Z,11.35
2023-04-20T08:14:41.697Z,11.85
2023-04-20T08:17:08.653Z,8.15
2023-04-20T08:19:36.238Z,9.02
2023-04-20T08:22:05.480Z,12.30
2023-04-20T08:24:32.484Z,11.60
2023-04-20T08:26:59.521Z,11.75
2023-04-20T08:29:26.581Z,11.50
2023-04-20T08:31:53.760Z,11.88
2023-04-20T08:34:20.770Z,8.05
2023-04-20T08:36:48.543Z,12.32
2023-04-20T08:39:21.798Z,8.02
2023-04-20T08:41:53.695Z,7.90
2023-04-20T08:44:20.883Z,8.25
2023-04-20T08:46:49.044Z,12.05
2023-04-20T08:49:17.715Z,11.65
2023-04-20T08:51:46.079Z,7.78
2023-04-20T08:54:14.095Z,8.90
2023-04-20T08:56:44.138Z,7.10
2023-04-20T08:59:14.078Z,8.00
2023-04-20T09:01:43.125Z,11.45
2023-04-20T09:04:24.252Z,11.38
2023-04-20T09:06:54.225Z,7.70
2023-04-20T09:09:22.903Z,8.52
2023-04-20T09:12:02.448Z,11.57
2023-04-20T09:14:29.672Z,11.88
2023-04-20T09:17:02.376Z,11.38
2023-04-20T09:19:31.099Z,8.00
2023-04-20T09:21:59.867Z,11.00
2023-04-20T09:24:37.828Z,6.68
2023-04-20T09:27:18.973Z,6.18
2023-04-20T09:30:01.096Z,10.23
2023-04-20T09:32:29.094Z,10.20
2023-04-20T09:34:57.016Z,10.40
2023-04-20T09:37:25.527Z,9.55
2023-04-20T09:39:59.557Z,10.63
2023-04-20T09:42:28.529Z,10.65
2023-04-20T09:44:56.052Z,8.80
2023-04-20T09:47:25.912Z,13.25
2023-04-20T09:49:54.334Z,12.55
2023-04-20T09:52:22.680Z,12.82
2023-04-20T09:54:51.556Z,11.75
2023-04-20T09:57:19.692Z,13.85
2023-04-20T09:59:47.443Z,9.15
2023-04-20T10:02:14.921Z,12.65
2023-04-20T10:04:54.380Z,12.95
2023-04-20T10:07:29.936Z,15.80
2023-04-20T10:12:36.548Z,9.63
2023-04-20T10:15:04.371Z,12.57
2023-04-20T10:17:32.683Z,8.80
2023-04-20T10:19:59.859Z,8.35
2023-04-20T10:22:33.061Z,12.93
2023-04-20T10:25:01.322Z,12.50
2023-04-20T10:27:28.917Z,9.57
2023-04-20T10:29:55.944Z,7.40
2023-04-20T10:32:28.132Z,6.93
2023-04-20T10:35:10.519Z,8.93
2023-04-20T10:37:51.121Z,10.05
2023-04-20T10:40:28.090Z,9.52
2023-04-20T10:42:55.069Z,9.43
2023-04-20T10:45:33.625Z,7.22
2023-04-20T10:48:09.853Z,5.70
2023-04-20T10:50:37.057Z,9.63
2023-04-20T10:53:05.389Z,8.52
2023-04-20T10:55:32.382Z,8.65
2023-04-20T10:57:59.281Z,8.45
2023-04-20T11:00:28.188Z,8.35
2023-04-20T11:02:57.248Z,9.00
2023-04-20T11:05:27.524Z,8.68
2023-04-20T11:07:56.225Z,8.60
2023-04-20T11:10:25.835Z,8.63
2023-04-20T11:12:53.214Z,9.32
2023-04-20T11:15:30.585Z,9.00
2023-04-20T11:18:07.218Z,32.90
2023-04-20T11:20:34.432Z,6.97
2023-04-20T11:23:01.402Z,6.88
2023-04-20T11:25:28.434Z,8.65
2023-04-20T11:28:06.444Z,8.38
2023-04-20T11:30:41.727Z,5.50
2023-04-20T11:33:10.452Z,7.65
2023-04-20T11:35:38.896Z,7.72
2023-04-20T11:38:06.139Z,5.88
2023-04-20T11:40:33.388Z,7.10
2023-04-20T11:43:00.714Z,6.38
2023-04-20T11:45:31.126Z,5.78
2023-04-20T11:47:58.298Z,7.20
2023-04-20T11:50:25.741Z,7.20
2023-04-20T11:52:52.775Z,5.60
2023-04-20T11:55:19.878Z,5.20
2023-04-20T11:57:46.836Z,7.55
2023-04-20T12:00:15.150Z,8.05
2023-04-20T12:02:42.376Z,5.68
2023-04-20T12:05:09.752Z,8.38
2023-04-20T12:07:36.893Z,7.50
2023-04-20T12:10:05.058Z,5.97
2023-04-20T12:12:32.105Z,8.50
2023-04-20T12:14:59.037Z,6.18
2023-04-20T12:17:26.450Z,7.93
2023-04-20T12:19:53.375Z,8.02
2023-04-20T12:22:20.335Z,5.32
2023-04-20T12:24:47.250Z,6.15
2023-04-20T12:27:14.147Z,8.13
2023-04-20T12:29:41.092Z,5.88
2023-04-20T12:32:08.029Z,7.28
2023-04-20T12:34:34.933Z,7.47
2023-04-20T12:37:02.182Z,8.05
2023-04-20T12:39:29.171Z,8.00
2023-04-20T12:41:58.096Z,5.70
2023-04-20T12:44:25.020Z,5.18
2023-04-20T12:46:52.293Z,5.18
2023-04-20T12:49:19.594Z,5.50
2023-04-20T12:51:46.781Z,5.32
2023-04-20T12:54:13.759Z,6.65
2023-04-20T12:56:40.686Z,5.20
2023-04-20T12:59:07.623Z,4.57
2023-04-20T13:01:34.847Z,4.72
2023-04-20T13:04:02.164Z,5.68
2023-04-20T13:06:29.262Z,7.00
2023-04-20T13:08:56.243Z,7.28
2023-04-20T13:11:23.899Z,5.05
2023-04-20T13:13:51.820Z,5.00
2023-04-20T13:16:18.781Z,4.93
2023-04-20T13:18:45.875Z,7.95
2023-04-20T13:21:12.825Z,7.78
2023-04-20T13:23:40.110Z,7.57
2023-04-20T13:26:07.580Z,8.57
2023-04-20T13:28:34.761Z,7.72
2023-04-20T13:31:01.791Z,5.38
2023-04-20T13:33:28.761Z,8.50
2023-04-20T13:35:55.740Z,5.75
2023-04-20T13:38:22.682Z,30.98
2023-04-20T13:40:49.638Z,21.75
2023-04-20T13:43:16.737Z,8.00
2023-04-20T13:45:43.694Z,6.07
2023-04-20T13:48:10.687Z,8.48
2023-04-20T13:50:37.823Z,9.02
2023-04-20T13:53:04.731Z,8.98
2023-04-20T13:55:32.013Z,6.47
2023-04-20T13:57:59.011Z,8.52
2023-04-20T14:00:26.252Z,9.10
2023-04-20T14:02:53.453Z,8.90
2023-04-20T14:05:20.728Z,8.55
2023-04-20T14:07:47.734Z,5.60
2023-04-20T14:10:15.254Z,6.22
2023-04-20T14:12:42.269Z,9.30
2023-04-20T14:15:09.659Z,9.30
2023-04-20T14:17:36.700Z,9.15
2023-04-20T14:20:04.178Z,7.03
2023-04-20T14:22:36.043Z,8.80
2023-04-20T14:25:04.922Z,6.65
2023-04-20T14:27:32.367Z,7.03
2023-04-20T14:29:59.373Z,5.60
2023-04-20T14:32:26.279Z,5.28
2023-04-20T14:34:53.319Z,6.00
2023-04-20T14:37:20.272Z,7.85
2023-04-20T14:39:49.520Z,8.02
2023-04-20T14:42:16.558Z,8.57
2023-04-20T14:44:43.468Z,7.75
2023-04-20T14:47:10.447Z,5.32
2023-04-20T14:49:37.413Z,5.63
2023-04-20T14:52:04.628Z,6.10
2023-04-20T14:54:31.607Z,8.07
2023-04-20T14:56:58.612Z,8.45
2023-04-20T14:59:27.006Z,8.30
2023-04-20T15:02:02.390Z,5.72
2023-04-20T15:04:31.070Z,5.75
2023-04-20T15:06:58.322Z,8.73
2023-04-20T15:09:25.472Z,8.40
2023-04-20T15:11:52.440Z,7.65
2023-04-20T15:14:20.377Z,5.57
2023-04-20T15:16:47.564Z,4.97
2023-04-20T15:19:14.551Z,7.35
2023-04-20T15:21:42.790Z,8.13
2023-04-20T15:24:11.549Z,7.00
2023-04-20T15:26:38.502Z,5.50
2023-04-20T15:29:05.562Z,8.18
2023-04-20T15:31:32.621Z,6.32
2023-04-20T15:34:00.238Z,5.68
2023-04-20T15:36:27.540Z,7.93
2023-04-20T15:38:56.989Z,5.80
2023-04-20T15:41:24.819Z,8.13
2023-04-20T15:43:51.862Z,5.35
2023-04-20T15:46:23.274Z,6.47
2023-04-20T15:48:50.414Z,5.78
2023-04-20T15:51:20.100Z,8.48
2023-04-20T15:53:50.874Z,8.55
2023-04-20T15:56:22.577Z,6.40
2023-04-20T15:58:52.824Z,8.18
2023-04-20T16:01:20.032Z,8.95
2023-04-20T16:03:48.312Z,6.68
2023-04-20T16:06:15.808Z,5.93
2023-04-20T16:08:42.805Z,5.95
2023-04-20T16:11:09.731Z,7.40
2023-04-20T16:13:36.894Z,7.70
2023-04-20T16:16:04.187Z,7.57
2023-04-20T16:18:32.286Z,7.45
2023-04-20T16:20:59.351Z,7.78
2023-04-20T16:23:26.449Z,6.45
2023-04-20T16:25:53.450Z,8.15
2023-04-20T16:28:20.497Z,6.40
2023-04-20T16:30:47.423Z,8.02
2023-04-20T16:33:14.902Z,8.35
2023-04-20T16:35:41.871Z,6.28
2023-04-20T16:38:10.723Z,9.77
2023-04-20T16:40:37.885Z,8.00
2023-04-20T16:43:04.940Z,6.25
2023-04-20T16:45:33.237Z,8.80
2023-04-20T16:48:00.696Z,6.05
2023-04-20T16:50:28.130Z,7.28
2023-04-20T16:52:55.188Z,8.90
2023-04-20T16:55:22.174Z,8.57
2023-04-20T16:57:49.275Z,40.33
2023-04-20T17:00:16.782Z,5.82
2023-04-20T17:02:43.944Z,5.85
2023-04-20T17:05:11.122Z,8.70
2023-04-20T17:07:38.164Z,8.20
2023-04-20T17:10:06.193Z,8.60
2023-04-20T17:12:33.192Z,5.97
2023-04-20T17:15:00.722Z,5.63
2023-04-20T17:17:28.298Z,6.07
2023-04-20T17:19:55.481Z,5.15
2023-04-20T17:22:22.546Z,3.42
2023-04-20T17:24:49.618Z,2.10
2023-04-20T17:27:16.586Z,1.70
2023-04-20T17:29:44.813Z,1.45
2023-04-20T17:32:12.206Z,1.20
2023-04-20T17:34:40.042Z,1.30
2023-04-20T17:37:07.267Z,1.05
2023-04-20T17:39:34.290Z,1.33
2023-04-20T17:42:01.604Z,1.05
2023-04-20T17:44:28.532Z,1.52
2023-04-20T17:46:55.818Z,1.55
2023-04-20T17:49:22.767Z,1.55
2023-04-20T17:51:49.736Z,1.33
2023-04-20T17:54:16.982Z,1.38
2023-04-20T17:56:44.254Z,1.80
2023-04-20T17:59:12.225Z,6.28
2023-04-20T18:01:39.465Z,13.90
2023-04-20T18:04:06.870Z,2.00
2023-04-20T18:06:34.361Z,1.58
2023-04-20T18:09:01.550Z,1.60
2023-04-20T18:11:28.515Z,1.55
2023-04-20T18:13:57.756Z,1.55
2023-04-20T18:16:24.802Z,1.55
2023-04-20T18:18:52.581Z,1.55
2023-04-20T18:21:19.493Z,1.67
2023-04-20T18:23:49.114Z,1.73
2023-04-20T18:26:17.725Z,1.60
2023-04-20T18:28:45.360Z,1.77
2023-04-20T18:31:12.972Z,1.70
2023-04-20T18:33:40.148Z,2.08
2023-04-20T18:36:07.532Z,1.50
2023-04-20T18:38:35.277Z,1.40
2023-04-20T18:41:02.407Z,1.50
2023-04-20T18:43:29.332Z,1.60
2023-04-20T18:45:56.720Z,1.70
2023-04-20T18:48:23.609Z,1.73
2023-04-20T18:50:51.050Z,1.55
2023-04-20T18:53:18.060Z,1.35
2023-04-20T18:55:44.968Z,2.70
2023-04-20T18:58:11.949Z,1.52
2023-04-20T19:00:38.938Z,1.58
2023-04-20T19:03:06.238Z,1.70
2023-04-20T19:05:33.499Z,1.60
2023-04-20T19:08:00.538Z,2.00
2023-04-20T19:10:27.558Z,1.35
2023-04-20T19:12:55.766Z,1.70
2023-04-20T19:15:25.679Z,1.58
2023-04-20T19:17:56.436Z,1.73
2023-04-20T19:20:24.713Z,1.95
2023-04-20T19:22:51.897Z,1.90
2023-04-20T19:25:20.329Z,7.55
2023-04-20T19:27:47.392Z,8.13
2023-04-20T19:30:14.532Z,1.90
2023-04-20T19:32:41.529Z,2.20
2023-04-20T19:35:08.545Z,2.33
2023-04-20T19:37:35.553Z,2.60
2023-04-20T19:40:04.511Z,2.92
2023-04-20T19:42:31.721Z,2.05
2023-04-20T19:44:58.999Z,2.10
2023-04-20T19:47:26.142Z,2.20
2023-04-20T19:49:53.214Z,2.17
2023-04-20T19:52:20.204Z,2.00
2023-04-20T19:54:47.286Z,2.17
2023-04-20T19:57:14.425Z,2.00
2023-04-20T19:59:42.493Z,2.20
2023-04-20T20:02:09.541Z,2.92
2023-04-20T20:04:37.797Z,2.20
2023-04-20T20:07:04.980Z,2.72
2023-04-20T20:09:31.870Z,2.55
2023-04-20T20:12:01.102Z,2.30
2023-04-20T20:14:28.122Z,2.33
2023-04-20T20:16:56.606Z,2.72
2023-04-20T20:19:23.918Z,2.72
2023-04-20T20:21:51.560Z,2.10
2023-04-20T20:24:18.832Z,1.83
2023-04-20T20:26:45.735Z,2.20
2023-04-20T20:29:12.667Z,2.28
2023-04-20T20:31:39.585Z,1.60
2023-04-20T20:34:08.997Z,2.03
2023-04-20T20:36:36.212Z,1.90
2023-04-20T20:39:05.076Z,1.75
2023-04-20T20:41:32.550Z,1.65
2023-04-20T20:43:59.745Z,1.58
2023-04-20T20:46:26.897Z,1.92
2023-04-20T20:48:55.179Z,1.50
2023-04-20T20:51:22.236Z,1.17
2023-04-20T20:53:49.186Z,1.35
2023-04-20T20:56:16.257Z,1.20
2023-04-20T20:58:43.220Z,1.17
2023-04-20T21:03:54.775Z,1.25
2023-04-20T21:06:21.973Z,1.30
2023-04-20T21:08:49.125Z,1.17
2023-04-20T21:11:16.059Z,1.00
2023-04-20T21:13:42.990Z,1.23
2023-04-20T21:16:10.008Z,1.48
2023-04-20T21:18:37.090Z,1.60
2023-04-20T21:21:04.220Z,4.18
2023-04-20T21:23:31.132Z,1.70
2023-04-20T21:25:58.206Z,1.45
2023-04-20T21:28:25.114Z,1.50
2023-04-20T21:30:52.021Z,1.58
2023-04-20T21:33:19.006Z,1.70
2023-04-20T21:35:46.082Z,1.50
2023-04-20T21:38:13.072Z,2.35
2023-04-20T21:40:40.055Z,2.15
2023-04-20T21:43:07.014Z,1.20
2023-04-20T21:45:35.587Z,1.20
2023-04-20T21:48:03.276Z,1.40
2023-04-20T21:50:30.222Z,1.52
2023-04-20T21:52:57.116Z,1.10
2023-04-20T21:55:24.107Z,1.00
2023-04-20T21:57:51.003Z,1.20
2023-04-20T22:00:18.215Z,1.00
2023-04-20T22:02:45.580Z,1.23
2023-04-20T22:05:13.573Z,0.90
2023-04-20T22:07:40.864Z,1.10
2023-04-20T22:10:08.508Z,1.20
2023-04-20T22:12:40.329Z,1.30
2023-04-20T22:15:09.893Z,1.45
2023-04-20T22:17:37.911Z,1.23
2023-04-20T22:20:07.944Z,3.42
2023-04-20T22:22:35.778Z,1.38
2023-04-20T22:25:04.607Z,1.55
2023-04-20T22:27:32.822Z,1.20
2023-04-20T22:30:00.520Z,1.65
2023-04-20T22:32:27.805Z,1.30
2023-04-20T22:34:54.808Z,1.38
2023-04-20T22:37:21.737Z,1.20
2023-04-20T22:39:48.920Z,1.08
2023-04-20T22:42:16.116Z,1.48
2023-04-20T22:44:43.135Z,1.67
2023-04-20T22:47:10.380Z,1.55
2023-04-20T22:49:37.564Z,1.48
2023-04-20T22:52:04.641Z,2.38
2023-04-20T22:54:31.713Z,1.65
2023-04-20T22:56:58.833Z,1.60
2023-04-20T22:59:26.004Z,1.63
2023-04-20T23:01:53.180Z,1.63
2023-04-20T23:04:20.374Z,1.55
2023-04-20T23:06:47.410Z,1.52
2023-04-20T23:09:17.528Z,1.42
2023-04-20T23:11:47.235Z,1.52
2023-04-20T23:14:14.290Z,1.73
2023-04-20T23:16:41.538Z,1.52
2023-04-20T23:19:08.530Z,1.20
2023-04-20T23:21:35.651Z,1.25
2023-04-20T23:24:02.735Z,1.25
2023-04-20T23:26:29.992Z,1.30
2023-04-20T23:28:57.117Z,1.17
2023-04-20T23:31:24.641Z,1.52
2023-04-20T23:33:51.852Z,1.30
2023-04-20T23:36:18.938Z,1.23
2023-04-20T23:38:46.007Z,1.40
2023-04-20T23:41:14.614Z,1.30
2023-04-20T23:43:42.032Z,1.13
2023-04-20T23:46:09.410Z,1.38
2023-04-20T23:48:36.697Z,1.33
2023-04-20T23:51:03.871Z,1.30
2023-04-20T23:53:30.893Z,1.35
2023-04-20T23:55:59.872Z,1.38
2023-04-20T23:58:28.091Z,1.50
